createdAt,value
2022-12-16T00:01:58.626Z,28.80
2022-12-16T00:04:44.788Z,26.08
2022-12-16T00:10:04.382Z,26.02
2022-12-16T00:12:36.236Z,22.35
2022-12-16T00:15:26.007Z,22.92
2022-12-16T00:18:12.699Z,22.27
2022-12-16T00:20:58.884Z,22.52
2022-12-16T00:23:48.495Z,21.45
2022-12-16T00:26:31.225Z,21.63
2022-12-16T00:29:17.868Z,21.15
2022-12-16T00:32:03.756Z,21.02
2022-12-16T00:34:48.552Z,19.40
2022-12-16T00:37:32.791Z,18.95
2022-12-16T00:40:11.293Z,20.02
2022-12-16T00:42:48.717Z,20.13
2022-12-16T00:45:42.686Z,20.90
2022-12-16T00:48:29.599Z,20.38
2022-12-16T00:51:13.735Z,18.50
2022-12-16T00:54:03.950Z,17.45
2022-12-16T00:56:46.048Z,17.67
2022-12-16T00:59:26.708Z,17.30
2022-12-16T01:02:10.371Z,18.10
2022-12-16T01:04:53.678Z,17.80
2022-12-16T01:07:29.474Z,17.48
2022-12-16T01:10:05.197Z,17.65
2022-12-16T01:12:38.399Z,19.05
2022-12-16T01:15:18.599Z,17.17
2022-12-16T01:17:59.309Z,17.67
2022-12-16T01:20:40.363Z,17.73
2022-12-16T01:23:20.992Z,18.67
2022-12-16T01:26:03.722Z,19.15
2022-12-16T01:28:42.672Z,18.63
2022-12-16T01:31:23.062Z,16.85
2022-12-16T01:33:58.515Z,17.85
2022-12-16T01:36:47.774Z,17.65
2022-12-16T01:42:05.695Z,15.55
2022-12-16T01:44:54.930Z,17.48
2022-12-16T01:47:40.404Z,16.75
2022-12-16T01:50:25.911Z,16.95
2022-12-16T01:53:09.994Z,16.85
2022-12-16T01:55:54.018Z,17.48
2022-12-16T01:58:39.378Z,17.77
2022-12-16T02:01:18.094Z,17.42
2022-12-16T02:03:57.798Z,18.40
2022-12-16T02:06:33.346Z,16.45
2022-12-16T02:09:17.910Z,16.88
2022-12-16T02:12:44.369Z,17.67
2022-12-16T02:15:44.765Z,17.17
2022-12-16T02:18:55.763Z,17.42
2022-12-16T02:22:07.345Z,19.35
2022-12-16T02:25:17.396Z,20.60
2022-12-16T02:28:04.452Z,19.98
2022-12-16T02:31:13.771Z,19.80
2022-12-16T02:34:21.186Z,19.92
2022-12-16T02:37:24.896Z,18.95
2022-12-16T02:40:11.215Z,20.45
2022-12-16T02:43:36.465Z,21.55
2022-12-16T02:46:18.539Z,18.10
2022-12-16T02:49:30.397Z,20.35
2022-12-16T02:52:20.000Z,18.65
2022-12-16T02:55:04.977Z,18.75
2022-12-16T02:58:15.074Z,19.38
2022-12-16T03:01:08.646Z,17.63
2022-12-16T03:04:33.031Z,19.45
2022-12-16T03:07:23.403Z,19.88
2022-12-16T03:10:07.722Z,20.45
2022-12-16T03:12:47.422Z,20.35
2022-12-16T03:15:35.172Z,20.60
2022-12-16T03:18:18.457Z,22.80
2022-12-16T03:21:02.096Z,22.48
2022-12-16T03:24:14.148Z,22.92
2022-12-16T03:27:18.877Z,24.05
2022-12-16T03:30:25.566Z,25.60
2022-12-16T03:36:16.089Z,25.95
2022-12-16T03:38:56.896Z,30.60
2022-12-16T03:41:41.591Z,29.42
2022-12-16T03:44:20.001Z,29.05
2022-12-16T03:47:08.099Z,30.30
2022-12-16T03:49:52.289Z,30.48
2022-12-16T03:52:38.926Z,30.40
2022-12-16T03:55:24.680Z,28.90
2022-12-16T03:58:07.887Z,30.40
2022-12-16T04:00:51.237Z,28.38
2022-12-16T04:03:32.750Z,26.33
2022-12-16T04:06:23.204Z,25.42
2022-12-16T04:09:07.403Z,23.05
2022-12-16T04:12:07.999Z,23.10
2022-12-16T04:15:07.282Z,22.98
2022-12-16T04:18:00.926Z,21.98
2022-12-16T04:21:05.598Z,21.48
2022-12-16T04:24:16.575Z,19.27
2022-12-16T04:27:15.588Z,21.52
2022-12-16T04:30:13.318Z,23.08
2022-12-16T04:33:24.249Z,22.80
2022-12-16T04:36:18.076Z,24.63
2022-12-16T04:39:13.127Z,22.17
2022-12-16T04:42:12.280Z,23.17
2022-12-16T04:45:09.198Z,23.52
2022-12-16T04:48:02.972Z,22.58
2022-12-16T04:50:59.825Z,21.77
2022-12-16T04:53:56.147Z,23.90
2022-12-16T04:56:58.171Z,23.13
2022-12-16T04:59:58.089Z,24.15
2022-12-16T05:02:53.254Z,23.88
2022-12-16T05:05:44.316Z,25.27
2022-12-16T05:08:41.122Z,26.70
2022-12-16T05:11:37.561Z,27.15
2022-12-16T05:14:36.493Z,26.98
2022-12-16T05:17:30.885Z,26.63
2022-12-16T05:20:33.180Z,27.30
2022-12-16T05:23:31.950Z,25.63
2022-12-16T05:26:26.927Z,28.88
2022-12-16T05:29:23.537Z,30.67
2022-12-16T05:32:14.198Z,29.42
2022-12-16T05:35:18.251Z,30.08
2022-12-16T05:38:14.943Z,31.05
2022-12-16T05:41:11.414Z,31.67
2022-12-16T05:44:11.959Z,32.67
2022-12-16T05:47:00.157Z,34.30
2022-12-16T05:50:02.107Z,34.03
2022-12-16T05:52:58.515Z,35.60
2022-12-16T05:55:52.359Z,37.67
2022-12-16T05:58:49.612Z,36.97
2022-12-16T06:01:40.671Z,36.85
2022-12-16T06:04:34.962Z,38.30
2022-12-16T06:10:36.574Z,33.03
2022-12-16T06:13:35.721Z,34.53
2022-12-16T06:16:32.740Z,33.35
2022-12-16T06:19:29.671Z,33.58
2022-12-16T06:22:20.873Z,34.20
2022-12-16T06:25:17.922Z,36.85
2022-12-16T06:28:14.965Z,37.35
2022-12-16T06:31:08.417Z,36.15
2022-12-16T06:34:04.889Z,39.22
2022-12-16T06:36:55.766Z,35.65
2022-12-16T06:39:53.067Z,34.55
2022-12-16T06:42:47.215Z,36.75
2022-12-16T06:45:43.840Z,35.55
2022-12-16T06:48:43.469Z,34.10
2022-12-16T06:51:37.251Z,35.22
2022-12-16T06:54:34.009Z,37.67
2022-12-16T06:57:27.211Z,33.40
2022-12-16T07:00:23.588Z,34.77
2022-12-16T07:03:23.698Z,30.92
2022-12-16T07:06:31.615Z,35.70
2022-12-16T07:09:26.218Z,37.47
2022-12-16T07:12:22.641Z,34.85
2022-12-16T07:15:19.013Z,30.52
2022-12-16T07:18:19.125Z,34.53
2022-12-16T07:21:16.378Z,33.90
2022-12-16T07:24:09.928Z,32.17
2022-12-16T07:27:05.840Z,35.08
2022-12-16T07:30:03.045Z,33.13
2022-12-16T07:32:57.442Z,30.88
2022-12-16T07:35:51.425Z,34.28
2022-12-16T07:39:05.887Z,37.45
2022-12-16T07:42:02.352Z,33.67
2022-12-16T07:44:58.870Z,34.38
2022-12-16T07:48:05.103Z,34.72
2022-12-16T07:51:12.865Z,34.22
2022-12-16T07:54:12.471Z,33.53
2022-12-16T07:57:05.941Z,35.92
2022-12-16T08:00:03.060Z,35.50
2022-12-16T08:03:12.760Z,36.85
2022-12-16T08:06:07.749Z,38.15
2022-12-16T08:09:03.727Z,36.92
2022-12-16T08:12:03.340Z,35.50
2022-12-16T08:14:59.135Z,40.42
2022-12-16T08:17:55.266Z,41.50
2022-12-16T08:20:49.036Z,40.63
2022-12-16T08:23:42.520Z,37.67
2022-12-16T08:26:35.879Z,35.83
2022-12-16T08:29:45.590Z,37.88
2022-12-16T08:32:48.045Z,34.17
2022-12-16T08:35:49.162Z,35.38
2022-12-16T08:38:46.410Z,35.58
2022-12-16T08:41:40.100Z,37.55
2022-12-16T08:44:34.192Z,38.13
2022-12-16T08:50:21.841Z,38.72
2022-12-16T08:53:34.718Z,40.58
2022-12-16T08:56:23.621Z,37.53
2022-12-16T08:59:19.977Z,38.63
2022-12-16T09:02:19.558Z,39.38
2022-12-16T09:05:16.156Z,36.28
2022-12-16T09:08:18.084Z,40.72
2022-12-16T09:11:14.477Z,37.90
2022-12-16T09:14:15.943Z,39.85
2022-12-16T09:17:12.437Z,38.45
2022-12-16T09:20:06.172Z,36.97
2022-12-16T09:23:22.730Z,38.80
2022-12-16T09:26:15.340Z,36.83
2022-12-16T09:29:24.496Z,36.90
2022-12-16T09:32:18.912Z,37.17
2022-12-16T09:35:15.065Z,32.17
2022-12-16T09:38:15.149Z,33.03
2022-12-16T09:41:12.227Z,35.25
2022-12-16T09:44:19.703Z,36.80
2022-12-16T09:47:20.147Z,32.05
2022-12-16T09:50:13.621Z,34.58
2022-12-16T09:53:19.024Z,34.75
2022-12-16T09:56:16.265Z,33.28
2022-12-16T09:59:18.103Z,38.20
2022-12-16T10:02:20.422Z,36.00
2022-12-16T10:05:20.944Z,33.55
2022-12-16T10:08:46.241Z,35.45
2022-12-16T10:11:56.807Z,36.03
2022-12-16T10:15:00.390Z,34.08
2022-12-16T10:17:51.033Z,35.37
2022-12-16T10:20:58.184Z,29.17
2022-12-16T10:24:18.401Z,30.38
2022-12-16T10:28:02.000Z,54.38
2022-12-16T10:31:03.170Z,42.53
2022-12-16T10:33:58.164Z,37.53
2022-12-16T10:36:54.165Z,37.20
2022-12-16T10:40:09.298Z,41.53
2022-12-16T10:43:30.361Z,33.90
2022-12-16T10:46:37.676Z,31.73
2022-12-16T10:49:34.617Z,86.68
2022-12-16T10:52:29.952Z,39.53
2022-12-16T10:55:34.133Z,40.72
2022-12-16T10:58:35.820Z,46.75
2022-12-16T11:01:46.537Z,44.67
2022-12-16T11:04:57.120Z,41.88
2022-12-16T11:07:51.538Z,47.65
2022-12-16T11:11:12.108Z,43.85
2022-12-16T11:14:01.192Z,39.65
2022-12-16T11:17:19.344Z,44.88
2022-12-16T11:20:33.801Z,39.90
2022-12-16T11:26:38.775Z,34.92
2022-12-16T11:29:37.320Z,52.88
2022-12-16T11:32:47.622Z,55.13
2022-12-16T11:35:41.644Z,46.05
2022-12-16T11:39:07.787Z,45.72
2022-12-16T11:42:09.031Z,46.72
2022-12-16T11:45:13.886Z,46.78
2022-12-16T11:49:01.922Z,46.80
2022-12-16T11:52:28.461Z,51.05
2022-12-16T11:59:11.836Z,52.20
2022-12-16T12:02:17.442Z,50.97
2022-12-16T12:05:20.704Z,47.45
2022-12-16T12:08:24.667Z,45.00
2022-12-16T12:11:42.223Z,39.65
2022-12-16T12:14:51.734Z,37.95
2022-12-16T12:18:07.398Z,38.78
2022-12-16T12:21:34.965Z,36.63
2022-12-16T12:24:46.057Z,41.67
2022-12-16T12:28:07.222Z,39.38
2022-12-16T12:31:11.077Z,37.38
2022-12-16T12:34:32.149Z,35.35
2022-12-16T12:37:42.456Z,37.58
2022-12-16T12:41:05.278Z,35.75
2022-12-16T12:44:36.651Z,36.28
2022-12-16T12:47:48.985Z,36.25
2022-12-16T12:50:49.056Z,33.53
2022-12-16T12:54:15.641Z,38.35
2022-12-16T12:57:12.590Z,35.55
2022-12-16T13:00:09.288Z,33.50
2022-12-16T13:03:25.614Z,35.03
2022-12-16T13:06:21.240Z,37.83
2022-12-16T13:09:19.298Z,40.65
2022-12-16T13:12:41.613Z,46.05
2022-12-16T13:15:41.699Z,43.53
2022-12-16T13:18:43.211Z,38.13
2022-12-16T13:21:56.673Z,37.25
2022-12-16T13:25:11.678Z,43.83
2022-12-16T13:28:15.325Z,32.42
2022-12-16T13:31:25.725Z,35.85
2022-12-16T13:34:38.476Z,31.98
2022-12-16T13:37:49.021Z,29.48
2022-12-16T13:40:46.584Z,34.28
2022-12-16T13:44:24.527Z,31.15
2022-12-16T13:47:38.368Z,27.88
2022-12-16T13:51:00.391Z,40.00
2022-12-16T13:54:12.542Z,29.13
2022-12-16T13:57:07.871Z,26.92
2022-12-16T14:00:03.146Z,26.63
2022-12-16T14:06:09.775Z,28.50
2022-12-16T14:09:08.471Z,28.58
2022-12-16T14:12:07.561Z,29.80
2022-12-16T14:15:26.501Z,26.30
2022-12-16T14:18:29.808Z,28.77
2022-12-16T14:21:31.667Z,31.27
2022-12-16T14:24:46.866Z,29.30
2022-12-16T14:27:41.193Z,31.70
2022-12-16T14:30:50.384Z,30.50
2022-12-16T14:33:47.844Z,32.85
2022-12-16T14:37:00.723Z,31.83
2022-12-16T14:40:08.089Z,27.63
2022-12-16T14:43:08.432Z,24.80
2022-12-16T14:46:06.962Z,24.88
2022-12-16T14:49:04.868Z,25.05
2022-12-16T14:52:13.215Z,24.23
2022-12-16T14:55:08.554Z,24.08
2022-12-16T14:58:03.234Z,29.08
2022-12-16T15:00:58.484Z,29.45
2022-12-16T15:03:59.610Z,28.95
2022-12-16T15:07:00.647Z,25.60
2022-12-16T15:09:55.868Z,27.25
2022-12-16T15:12:54.009Z,26.27
2022-12-16T15:15:54.837Z,25.23
2022-12-16T15:19:05.936Z,24.65
2022-12-16T15:22:06.532Z,38.22
2022-12-16T15:25:00.262Z,34.70
2022-12-16T15:28:01.022Z,28.98
2022-12-16T15:31:18.847Z,28.13
2022-12-16T15:37:41.661Z,27.52
2022-12-16T15:40:51.142Z,31.02
2022-12-16T15:43:53.651Z,37.20
2022-12-16T15:47:06.087Z,44.67
2022-12-16T15:50:04.829Z,37.85
2022-12-16T15:53:02.767Z,35.25
2022-12-16T15:56:14.273Z,72.95
2022-12-16T15:59:07.740Z,32.00
2022-12-16T16:02:10.365Z,30.00
2022-12-16T16:05:18.486Z,37.58
2022-12-16T16:08:15.255Z,37.13
2022-12-16T16:11:15.895Z,32.17
2022-12-16T16:14:17.452Z,32.92
2022-12-16T16:20:08.651Z,33.70
2022-12-16T16:23:05.839Z,34.55
2022-12-16T16:26:06.190Z,29.95
2022-12-16T16:29:03.126Z,34.08
2022-12-16T16:32:03.844Z,32.72
2022-12-16T16:34:56.121Z,34.67
2022-12-16T16:38:07.251Z,35.20
2022-12-16T16:41:39.810Z,35.30
2022-12-16T16:44:41.730Z,33.83
2022-12-16T16:47:44.736Z,31.38
2022-12-16T16:50:40.140Z,29.33
2022-12-16T16:53:39.485Z,29.92
2022-12-16T16:56:36.439Z,26.42
2022-12-16T16:59:34.360Z,26.42
2022-12-16T17:02:41.044Z,25.75
2022-12-16T17:05:35.873Z,24.83
2022-12-16T17:11:33.426Z,25.20
2022-12-16T17:14:37.769Z,28.40
2022-12-16T17:17:36.021Z,30.67
2022-12-16T17:20:36.568Z,32.03
2022-12-16T17:23:33.148Z,30.00
2022-12-16T17:26:30.538Z,30.23
2022-12-16T17:29:24.965Z,42.85
2022-12-16T17:32:16.257Z,32.85
2022-12-16T17:35:14.978Z,29.75
2022-12-16T17:38:11.246Z,37.78
2022-12-16T17:41:10.128Z,36.20
2022-12-16T17:44:11.120Z,26.65
2022-12-16T17:47:14.803Z,32.40
2022-12-16T17:50:11.235Z,28.40
2022-12-16T17:53:14.955Z,26.48
2022-12-16T17:56:14.257Z,30.85
2022-12-16T17:59:11.102Z,31.67
2022-12-16T18:02:05.735Z,28.30
2022-12-16T18:04:57.068Z,30.13
2022-12-16T18:07:50.947Z,30.35
2022-12-16T18:10:47.997Z,28.08
2022-12-16T18:13:48.759Z,31.15
2022-12-16T18:16:43.294Z,30.88
2022-12-16T18:19:41.249Z,33.70
2022-12-16T18:22:45.203Z,32.30
2022-12-16T18:25:42.151Z,34.60
2022-12-16T18:28:38.969Z,32.20
2022-12-16T18:31:34.617Z,32.22
2022-12-16T18:34:28.092Z,35.45
2022-12-16T18:37:30.934Z,32.55
2022-12-16T18:40:24.226Z,31.63
2022-12-16T18:43:21.582Z,31.85
2022-12-16T18:46:24.173Z,33.90
2022-12-16T18:49:18.965Z,35.30
2022-12-16T18:52:12.932Z,36.53
2022-12-16T18:55:24.292Z,35.55
2022-12-16T18:58:49.868Z,35.83
2022-12-16T19:01:41.985Z,35.22
2022-12-16T19:04:44.881Z,34.17
2022-12-16T19:07:42.623Z,37.58
2022-12-16T19:10:44.540Z,46.38
2022-12-16T19:13:44.554Z,36.90
2022-12-16T19:16:45.807Z,34.70
2022-12-16T19:19:42.901Z,35.85
2022-12-16T19:22:37.502Z,35.83
2022-12-16T19:25:33.533Z,39.00
2022-12-16T19:28:36.960Z,38.15
2022-12-16T19:31:37.226Z,42.63
2022-12-16T19:34:35.878Z,46.97
2022-12-16T19:37:33.669Z,39.85
2022-12-16T19:40:32.235Z,37.38
2022-12-16T19:43:26.315Z,36.30
2022-12-16T19:49:15.032Z,35.92
2022-12-16T19:52:16.249Z,37.05
2022-12-16T19:55:17.251Z,39.15
2022-12-16T19:58:09.104Z,37.95
2022-12-16T20:01:12.134Z,41.63
2022-12-16T20:04:14.727Z,42.63
2022-12-16T20:07:09.456Z,40.22
2022-12-16T20:10:03.576Z,39.58
2022-12-16T20:12:57.511Z,39.25
2022-12-16T20:15:51.888Z,38.83
2022-12-16T20:18:49.916Z,37.75
2022-12-16T20:21:48.952Z,40.55
2022-12-16T20:24:56.353Z,39.60
2022-12-16T20:27:52.892Z,42.92
2022-12-16T20:30:49.889Z,42.13
2022-12-16T20:33:47.572Z,45.85
2022-12-16T20:37:01.484Z,40.40
2022-12-16T20:39:58.547Z,37.85
2022-12-16T20:42:53.523Z,38.08
2022-12-16T20:45:47.389Z,40.78
2022-12-16T20:48:39.852Z,41.88
2022-12-16T20:51:39.497Z,44.40
2022-12-16T20:54:38.052Z,45.97
2022-12-16T20:57:34.317Z,51.17
2022-12-16T21:00:34.429Z,51.65
2022-12-16T21:03:36.969Z,57.65
2022-12-16T21:06:46.125Z,53.78
2022-12-16T21:09:45.945Z,58.83
2022-12-16T21:12:43.042Z,58.55
2022-12-16T21:15:34.367Z,61.35
2022-12-16T21:18:30.106Z,61.78
2022-12-16T21:21:21.604Z,57.75
2022-12-16T21:24:12.864Z,62.67
2022-12-16T21:27:14.352Z,62.20
2022-12-16T21:30:09.161Z,66.72
2022-12-16T21:32:57.902Z,65.95
2022-12-16T21:35:56.050Z,66.20
2022-12-16T21:38:47.765Z,69.47
2022-12-16T21:41:52.638Z,70.75
2022-12-16T21:44:50.433Z,71.07
2022-12-16T21:47:46.978Z,70.82
2022-12-16T21:53:36.285Z,66.32
2022-12-16T21:56:32.592Z,74.60
2022-12-16T21:59:26.176Z,75.00
2022-12-16T22:02:23.038Z,73.75
2022-12-16T22:05:17.367Z,77.25
2022-12-16T22:08:17.247Z,77.95
2022-12-16T22:11:10.970Z,77.90
2022-12-16T22:14:07.773Z,76.20
2022-12-16T22:16:58.683Z,75.40
2022-12-16T22:20:01.661Z,78.18
2022-12-16T22:22:51.185Z,80.30
2022-12-16T22:25:48.693Z,78.43
2022-12-16T22:28:46.287Z,75.57
2022-12-16T22:31:47.972Z,79.45
2022-12-16T22:34:44.911Z,82.75
2022-12-16T22:37:43.752Z,83.05
2022-12-16T22:40:36.872Z,82.03
2022-12-16T22:43:25.262Z,85.40
2022-12-16T22:46:27.370Z,85.30
2022-12-16T22:49:24.128Z,84.32
2022-12-16T22:52:14.878Z,89.50
2022-12-16T22:55:11.219Z,90.45
2022-12-16T22:58:01.895Z,85.45
2022-12-16T23:01:06.877Z,85.15
2022-12-16T23:04:03.929Z,84.50
2022-12-16T23:07:02.951Z,83.65
2022-12-16T23:10:07.025Z,87.47
2022-12-16T23:12:57.514Z,86.53
2022-12-16T23:19:17.028Z,85.47
2022-12-16T23:22:13.139Z,83.93
2022-12-16T23:25:07.072Z,87.47
2022-12-16T23:28:03.782Z,83.18
2022-12-16T23:30:57.359Z,81.53
2022-12-16T23:33:59.978Z,84.90
2022-12-16T23:37:01.686Z,82.68
2022-12-16T23:39:59.209Z,83.70
2022-12-16T23:42:57.736Z,81.47
2022-12-16T23:45:51.600Z,78.93
2022-12-16T23:48:50.905Z,85.20
2022-12-16T23:51:46.386Z,86.43
2022-12-16T23:54:41.033Z,97.88
2022-12-16T23:57:37.829Z,83.45
